createdAt,value
2022-10-30T00:02:47.987Z,48.33
2022-10-30T00:05:53.307Z,47.39
2022-10-30T00:08:57.517Z,46.98
2022-10-30T00:12:02.115Z,47.00
2022-10-30T00:15:09.116Z,47.53
2022-10-30T00:18:13.483Z,47.52
2022-10-30T00:21:18.662Z,47.67
2022-10-30T00:24:22.664Z,48.20
2022-10-30T00:27:26.816Z,50.51
2022-10-30T00:30:32.415Z,50.91
2022-10-30T00:33:36.634Z,50.19
2022-10-30T00:36:41.497Z,49.67
2022-10-30T00:39:45.593Z,49.08
2022-10-30T00:42:49.712Z,48.86
2022-10-30T00:45:55.578Z,48.35
2022-10-30T00:49:04.878Z,48.36
2022-10-30T00:52:12.093Z,49.81
2022-10-30T00:55:21.404Z,49.55
2022-10-30T00:58:31.294Z,49.80
2022-10-30T01:01:40.601Z,49.40
2022-10-30T01:04:46.533Z,48.81
2022-10-30T01:07:50.687Z,48.24
2022-10-30T01:10:54.882Z,48.18
2022-10-30T01:14:02.176Z,48.00
2022-10-30T01:17:31.851Z,48.03
2022-10-30T01:20:55.722Z,48.10
2022-10-30T01:24:20.306Z,48.37
2022-10-30T01:27:37.700Z,48.26
2022-10-30T01:30:59.256Z,48.36
2022-10-30T01:34:18.912Z,48.38
2022-10-30T01:37:30.393Z,48.50
2022-10-30T01:40:35.280Z,49.21
2022-10-30T01:43:41.068Z,48.99
2022-10-30T01:47:01.234Z,48.42
2022-10-30T01:50:23.382Z,48.84
2022-10-30T01:53:42.682Z,48.82
2022-10-30T01:56:56.811Z,48.87
2022-10-30T02:00:06.220Z,48.43
2022-10-30T02:03:17.365Z,49.16
2022-10-30T02:06:24.141Z,52.55
2022-10-30T02:09:28.533Z,53.15
2022-10-30T02:12:33.586Z,51.67
2022-10-30T02:15:38.595Z,51.61
2022-10-30T02:18:43.105Z,51.27
2022-10-30T02:21:48.903Z,50.92
2022-10-30T02:24:53.285Z,50.36
2022-10-30T02:28:01.217Z,50.29
2022-10-30T02:31:08.268Z,49.74
2022-10-30T02:34:12.552Z,50.11
2022-10-30T02:37:18.287Z,50.64
2022-10-30T02:40:22.434Z,50.37
2022-10-30T02:43:26.724Z,49.75
2022-10-30T02:46:30.894Z,49.89
2022-10-30T02:49:35.086Z,49.57
2022-10-30T02:52:40.520Z,49.56
2022-10-30T02:55:45.966Z,51.19
2022-10-30T02:58:50.121Z,50.19
2022-10-30T03:01:55.635Z,51.47
2022-10-30T03:04:59.756Z,51.97
2022-10-30T03:08:05.663Z,52.64
2022-10-30T03:11:11.607Z,52.60
2022-10-30T03:14:15.794Z,51.93
2022-10-30T03:17:20.534Z,50.89
2022-10-30T03:20:26.200Z,50.64
2022-10-30T03:23:32.087Z,50.45
2022-10-30T03:26:38.094Z,50.57
2022-10-30T03:29:44.007Z,50.26
2022-10-30T03:32:49.623Z,50.63
2022-10-30T03:35:54.186Z,52.49
2022-10-30T03:38:59.736Z,52.25
2022-10-30T03:42:04.789Z,51.32
2022-10-30T03:45:10.196Z,51.93
2022-10-30T03:48:14.448Z,53.97
2022-10-30T03:51:19.327Z,52.58
2022-10-30T03:54:25.720Z,51.86
2022-10-30T03:57:30.071Z,51.11
2022-10-30T04:00:45.594Z,50.45
2022-10-30T04:03:50.020Z,50.70
2022-10-30T04:06:54.824Z,50.44
2022-10-30T04:10:01.412Z,50.54
2022-10-30T04:13:08.952Z,50.74
2022-10-30T04:16:17.468Z,50.77
2022-10-30T04:19:22.843Z,51.28
2022-10-30T04:22:27.319Z,52.06
2022-10-30T04:25:35.521Z,51.90
2022-10-30T04:28:39.673Z,51.79
2022-10-30T04:31:44.943Z,54.47
2022-10-30T04:34:51.173Z,56.26
2022-10-30T04:37:55.873Z,55.34
2022-10-30T04:41:01.468Z,55.45
2022-10-30T04:44:21.033Z,55.42
2022-10-30T04:47:25.388Z,55.27
2022-10-30T04:50:29.912Z,54.24
2022-10-30T04:53:34.367Z,53.34
2022-10-30T04:56:44.671Z,53.49
2022-10-30T04:59:49.234Z,54.69
2022-10-30T05:02:53.524Z,52.96
2022-10-30T05:06:00.724Z,52.87
2022-10-30T05:09:05.694Z,53.18
2022-10-30T05:12:19.738Z,53.53
2022-10-30T05:15:30.692Z,52.47
2022-10-30T05:18:35.371Z,52.98
2022-10-30T05:21:39.720Z,53.11
2022-10-30T05:24:43.791Z,54.96
2022-10-30T05:27:49.692Z,53.41
2022-10-30T05:30:56.174Z,53.01
2022-10-30T05:34:26.949Z,53.00
2022-10-30T05:37:35.105Z,52.07
2022-10-30T05:40:42.024Z,52.05
2022-10-30T05:43:48.431Z,51.12
2022-10-30T05:46:52.842Z,50.73
2022-10-30T05:50:11.868Z,50.81
2022-10-30T05:53:23.674Z,51.39
2022-10-30T05:56:29.332Z,51.38
2022-10-30T05:59:36.403Z,50.89
2022-10-30T06:02:40.883Z,49.98
2022-10-30T06:05:47.640Z,49.27
2022-10-30T06:08:52.639Z,48.88
2022-10-30T06:12:19.240Z,48.19
2022-10-30T06:15:45.212Z,46.80
2022-10-30T06:18:49.533Z,46.66
2022-10-30T06:21:55.171Z,45.17
2022-10-30T06:25:10.910Z,44.27
2022-10-30T06:28:38.440Z,44.59
2022-10-30T06:31:44.274Z,44.51
2022-10-30T06:34:49.669Z,43.35
2022-10-30T06:37:56.589Z,43.93
2022-10-30T06:41:01.784Z,43.38
2022-10-30T06:44:26.263Z,41.87
2022-10-30T06:47:36.712Z,42.00
2022-10-30T06:50:40.968Z,41.54
2022-10-30T06:53:45.500Z,41.12
2022-10-30T06:57:08.163Z,40.06
2022-10-30T07:00:30.575Z,39.37
2022-10-30T07:03:54.613Z,39.70
2022-10-30T07:07:00.269Z,39.66
2022-10-30T07:10:05.464Z,38.84
2022-10-30T07:13:29.962Z,38.52
2022-10-30T07:16:42.169Z,38.56
2022-10-30T07:19:51.173Z,38.60
2022-10-30T07:22:55.749Z,38.97
2022-10-30T07:26:04.180Z,38.27
2022-10-30T07:29:14.880Z,38.02
2022-10-30T07:32:20.850Z,37.65
2022-10-30T07:35:44.901Z,37.45
2022-10-30T07:39:07.308Z,37.57
2022-10-30T07:42:34.897Z,37.71
2022-10-30T07:45:58.020Z,37.51
2022-10-30T07:49:29.610Z,37.69
2022-10-30T07:52:43.908Z,37.46
2022-10-30T07:55:48.240Z,37.09
2022-10-30T07:59:24.879Z,36.99
2022-10-30T08:02:36.448Z,37.03
2022-10-30T08:05:56.642Z,37.37
2022-10-30T08:09:12.483Z,36.26
2022-10-30T08:12:17.621Z,36.42
2022-10-30T08:15:22.540Z,36.04
2022-10-30T08:18:27.390Z,36.07
2022-10-30T08:21:31.823Z,36.34
2022-10-30T08:24:42.337Z,35.70
2022-10-30T08:27:57.130Z,35.09
2022-10-30T08:31:04.333Z,35.49
2022-10-30T08:34:28.400Z,34.75
2022-10-30T08:37:33.572Z,34.55
2022-10-30T08:40:39.178Z,34.92
2022-10-30T08:43:44.594Z,34.34
2022-10-30T08:46:48.867Z,33.40
2022-10-30T08:49:55.469Z,33.29
2022-10-30T08:53:04.611Z,33.46
2022-10-30T08:56:12.125Z,32.95
2022-10-30T08:59:36.539Z,32.59
2022-10-30T09:02:41.609Z,32.60
2022-10-30T09:06:04.018Z,32.52
2022-10-30T09:09:26.509Z,32.12
2022-10-30T09:12:35.837Z,31.72
2022-10-30T09:15:39.945Z,31.86
2022-10-30T09:18:44.345Z,31.30
2022-10-30T09:21:49.196Z,31.16
2022-10-30T09:24:53.899Z,30.64
2022-10-30T09:28:19.545Z,30.93
2022-10-30T09:31:55.840Z,30.41
2022-10-30T09:35:02.380Z,30.39
2022-10-30T09:38:17.646Z,29.81
2022-10-30T09:41:41.058Z,29.67
2022-10-30T09:45:23.344Z,29.86
2022-10-30T09:48:37.920Z,29.82
2022-10-30T09:52:23.700Z,28.95
2022-10-30T09:55:36.395Z,28.63
2022-10-30T09:58:48.826Z,28.36
2022-10-30T10:02:03.003Z,28.05
2022-10-30T10:05:17.277Z,28.24
2022-10-30T10:08:34.137Z,28.16
2022-10-30T10:12:00.698Z,27.96
2022-10-30T10:15:13.245Z,27.81
2022-10-30T10:18:24.852Z,27.32
2022-10-30T10:21:31.008Z,27.67
2022-10-30T10:24:38.598Z,27.61
2022-10-30T10:27:55.569Z,27.15
2022-10-30T10:31:12.620Z,27.44
2022-10-30T10:34:37.638Z,26.82
2022-10-30T10:37:50.814Z,26.72
2022-10-30T10:41:01.308Z,27.00
2022-10-30T10:44:27.318Z,26.52
2022-10-30T10:47:51.038Z,26.60
2022-10-30T10:51:00.432Z,26.61
2022-10-30T10:54:12.169Z,26.54
2022-10-30T10:57:26.067Z,26.83
2022-10-30T11:00:32.258Z,26.76
2022-10-30T11:03:47.485Z,26.37
2022-10-30T11:06:56.028Z,26.17
2022-10-30T11:10:00.945Z,26.22
2022-10-30T11:13:05.195Z,25.74
2022-10-30T11:16:20.345Z,26.47
2022-10-30T11:19:25.287Z,25.84
2022-10-30T11:22:36.176Z,26.00
2022-10-30T11:25:40.855Z,25.74
2022-10-30T11:28:50.514Z,26.09
2022-10-30T11:32:03.478Z,25.62
2022-10-30T11:35:14.925Z,25.96
2022-10-30T11:38:22.539Z,25.26
2022-10-30T11:41:28.008Z,26.00
2022-10-30T11:44:36.663Z,25.78
2022-10-30T11:47:41.182Z,25.93
2022-10-30T11:50:51.330Z,25.34
2022-10-30T11:53:57.109Z,25.41
2022-10-30T11:57:01.139Z,25.54
2022-10-30T12:00:09.975Z,25.73
2022-10-30T12:03:31.148Z,25.73
2022-10-30T12:06:35.480Z,25.30
2022-10-30T12:09:50.134Z,25.42
2022-10-30T12:12:54.465Z,25.21
2022-10-30T12:16:14.679Z,25.09
2022-10-30T12:19:21.435Z,25.06
2022-10-30T12:22:29.063Z,24.92
2022-10-30T12:25:39.895Z,25.14
2022-10-30T12:28:55.280Z,25.36
2022-10-30T12:32:04.008Z,25.21
2022-10-30T12:35:18.805Z,25.01
2022-10-30T12:38:28.629Z,25.02
2022-10-30T12:41:41.378Z,25.05
2022-10-30T12:44:49.009Z,25.01
2022-10-30T12:47:59.134Z,24.56
2022-10-30T12:51:19.758Z,24.92
2022-10-30T12:54:35.670Z,24.55
2022-10-30T12:57:48.346Z,24.75
2022-10-30T13:00:59.238Z,24.75
2022-10-30T13:04:11.221Z,24.39
2022-10-30T13:07:21.807Z,24.20
2022-10-30T13:10:31.318Z,24.92
2022-10-30T13:13:39.895Z,24.48
2022-10-30T13:16:44.307Z,24.55
2022-10-30T13:19:49.116Z,24.12
2022-10-30T13:22:59.197Z,24.40
2022-10-30T13:26:13.597Z,24.89
2022-10-30T13:29:25.821Z,24.70
2022-10-30T13:32:40.809Z,25.35
2022-10-30T13:35:50.099Z,24.66
2022-10-30T13:39:01.595Z,25.17
2022-10-30T13:42:22.406Z,25.41
2022-10-30T13:45:56.919Z,25.20
2022-10-30T13:49:15.611Z,25.48
2022-10-30T13:52:22.811Z,25.29
2022-10-30T13:55:29.919Z,25.80
2022-10-30T13:58:43.404Z,25.87
2022-10-30T14:02:01.564Z,25.99
2022-10-30T14:05:16.968Z,26.05
2022-10-30T14:08:32.396Z,26.90
2022-10-30T14:11:36.585Z,27.13
2022-10-30T14:14:49.477Z,27.38
2022-10-30T14:18:33.470Z,27.05
2022-10-30T14:21:46.053Z,27.57
2022-10-30T14:24:50.277Z,28.00
2022-10-30T14:27:58.380Z,27.92
2022-10-30T14:31:04.699Z,28.09
2022-10-30T14:34:43.056Z,28.63
2022-10-30T14:37:58.777Z,28.76
2022-10-30T14:41:36.280Z,29.27
2022-10-30T14:45:01.634Z,29.55
2022-10-30T14:48:14.435Z,30.04
2022-10-30T14:51:24.946Z,29.99
2022-10-30T14:54:35.245Z,30.02
2022-10-30T14:57:48.675Z,29.97
2022-10-30T15:00:57.457Z,30.08
2022-10-30T15:04:18.975Z,30.26
2022-10-30T15:07:34.527Z,30.68
2022-10-30T15:10:43.752Z,30.79
2022-10-30T15:13:51.687Z,30.83
2022-10-30T15:16:56.135Z,31.62
2022-10-30T15:20:02.916Z,31.91
2022-10-30T15:23:13.927Z,32.04
2022-10-30T15:26:22.041Z,32.65
2022-10-30T15:29:30.681Z,32.83
2022-10-30T15:32:34.901Z,33.26
2022-10-30T15:35:39.409Z,33.93
2022-10-30T15:38:45.051Z,34.33
2022-10-30T15:41:51.958Z,34.52
2022-10-30T15:44:56.159Z,34.91
2022-10-30T15:48:04.472Z,35.44
2022-10-30T15:51:13.925Z,34.70
2022-10-30T15:54:21.635Z,34.54
2022-10-30T15:57:57.387Z,35.22
2022-10-30T16:00:59.417Z,35.96
2022-10-30T16:04:03.919Z,35.87
2022-10-30T16:07:19.758Z,36.37
2022-10-30T16:10:28.077Z,37.43
2022-10-30T16:13:32.956Z,37.11
2022-10-30T16:16:37.128Z,36.98
2022-10-30T16:19:47.176Z,37.51
2022-10-30T16:22:51.506Z,37.48
2022-10-30T16:25:59.517Z,37.55
2022-10-30T16:29:18.694Z,37.32
2022-10-30T16:32:27.323Z,38.01
2022-10-30T16:35:31.810Z,37.75
2022-10-30T16:38:38.551Z,37.57
2022-10-30T16:41:44.846Z,37.67
2022-10-30T16:44:49.555Z,37.71
2022-10-30T16:47:59.041Z,37.67
2022-10-30T16:51:06.128Z,38.54
2022-10-30T16:54:22.247Z,38.60
2022-10-30T16:57:30.650Z,38.20
2022-10-30T17:00:36.821Z,37.87
2022-10-30T17:03:44.190Z,37.63
2022-10-30T17:06:48.409Z,37.26
2022-10-30T17:09:57.211Z,37.83
2022-10-30T17:13:31.882Z,38.42
2022-10-30T17:16:39.315Z,38.73
2022-10-30T17:19:51.459Z,39.07
2022-10-30T17:23:09.240Z,39.75
2022-10-30T17:26:15.038Z,39.56
2022-10-30T17:29:47.229Z,40.75
2022-10-30T17:32:56.241Z,41.02
2022-10-30T17:36:00.899Z,41.08
2022-10-30T17:39:06.371Z,40.18
2022-10-30T17:42:13.330Z,40.07
2022-10-30T17:45:19.751Z,39.74
2022-10-30T17:48:27.748Z,39.65
2022-10-30T17:51:32.894Z,39.22
2022-10-30T17:54:38.446Z,38.54
2022-10-30T17:57:43.239Z,38.04
2022-10-30T18:00:49.704Z,39.25
2022-10-30T18:03:56.960Z,39.05
2022-10-30T18:07:01.676Z,39.13
2022-10-30T18:10:09.728Z,38.60
2022-10-30T18:13:15.648Z,38.77
2022-10-30T18:16:22.466Z,38.78
2022-10-30T18:19:26.955Z,38.85
2022-10-30T18:22:31.186Z,38.81
2022-10-30T18:25:38.702Z,38.57
2022-10-30T18:28:43.799Z,38.66
2022-10-30T18:31:49.540Z,38.53
2022-10-30T18:34:53.749Z,38.71
2022-10-30T18:37:58.446Z,38.87
2022-10-30T18:41:02.716Z,39.06
2022-10-30T18:44:11.846Z,39.18
2022-10-30T18:47:18.656Z,39.08
2022-10-30T18:50:25.755Z,39.71
2022-10-30T18:53:34.977Z,39.33
2022-10-30T18:56:47.275Z,39.72
2022-10-30T18:59:51.900Z,39.33
2022-10-30T19:02:58.679Z,39.30
2022-10-30T19:06:03.491Z,39.33
2022-10-30T19:09:07.849Z,39.13
2022-10-30T19:12:12.659Z,39.41
2022-10-30T19:15:19.498Z,39.34
2022-10-30T19:18:26.319Z,39.73
2022-10-30T19:21:34.877Z,39.49
2022-10-30T19:24:39.179Z,39.73
2022-10-30T19:27:43.480Z,40.22
2022-10-30T19:30:50.642Z,40.60
2022-10-30T19:33:57.829Z,40.65
2022-10-30T19:37:01.945Z,41.32
2022-10-30T19:40:21.185Z,42.11
2022-10-30T19:43:25.459Z,42.30
2022-10-30T19:46:29.769Z,41.90
2022-10-30T19:49:35.419Z,42.11
2022-10-30T19:52:39.586Z,41.41
2022-10-30T19:55:45.008Z,41.59
2022-10-30T19:58:50.462Z,41.40
2022-10-30T20:01:54.850Z,41.41
2022-10-30T20:05:03.479Z,41.73
2022-10-30T20:08:12.741Z,41.93
2022-10-30T20:11:16.870Z,41.52
2022-10-30T20:14:23.797Z,41.90
2022-10-30T20:17:28.096Z,41.85
2022-10-30T20:20:37.205Z,42.20
2022-10-30T20:23:41.757Z,42.38
2022-10-30T20:26:46.308Z,42.95
2022-10-30T20:29:50.568Z,42.59
2022-10-30T20:32:55.126Z,43.83
2022-10-30T20:36:00.819Z,43.68
2022-10-30T20:39:05.203Z,45.20
2022-10-30T20:42:14.296Z,45.98
2022-10-30T20:45:21.250Z,46.35
2022-10-30T20:48:25.548Z,45.87
2022-10-30T20:51:31.939Z,45.83
2022-10-30T20:54:36.121Z,45.99
2022-10-30T20:57:40.911Z,46.12
2022-10-30T21:00:45.316Z,46.56
2022-10-30T21:03:50.739Z,45.82
2022-10-30T21:06:59.301Z,46.06
2022-10-30T21:10:03.592Z,45.61
2022-10-30T21:13:09.815Z,45.97
2022-10-30T21:16:14.637Z,45.00
2022-10-30T21:19:19.043Z,45.04
2022-10-30T21:22:24.772Z,44.67
2022-10-30T21:25:29.129Z,45.68
2022-10-30T21:28:33.536Z,44.79
2022-10-30T21:31:37.889Z,45.34
2022-10-30T21:34:42.200Z,45.16
2022-10-30T21:37:48.029Z,45.09
2022-10-30T21:40:57.202Z,45.08
2022-10-30T21:44:02.491Z,44.51
2022-10-30T21:47:06.623Z,45.29
2022-10-30T21:50:12.678Z,45.44
2022-10-30T21:53:18.688Z,44.86
2022-10-30T21:56:24.495Z,45.39
2022-10-30T21:59:28.739Z,44.50
2022-10-30T22:02:33.111Z,44.80
2022-10-30T22:05:37.349Z,44.59
2022-10-30T22:08:43.117Z,44.52
2022-10-30T22:11:47.272Z,44.05
2022-10-30T22:14:51.560Z,43.99
2022-10-30T22:17:55.718Z,44.61
2022-10-30T22:21:03.663Z,44.32
2022-10-30T22:24:10.003Z,44.47
2022-10-30T22:27:14.389Z,44.19
2022-10-30T22:30:18.729Z,44.43
2022-10-30T22:33:23.498Z,44.36
2022-10-30T22:36:30.161Z,44.90
2022-10-30T22:39:35.677Z,44.76
2022-10-30T22:42:39.906Z,44.96
2022-10-30T22:45:43.921Z,44.76
2022-10-30T22:48:48.293Z,44.05
2022-10-30T22:51:52.308Z,44.17
2022-10-30T22:54:57.907Z,44.19
2022-10-30T22:58:02.427Z,44.68
2022-10-30T23:01:12.194Z,44.34
2022-10-30T23:04:16.786Z,44.60
2022-10-30T23:07:30.164Z,45.15
2022-10-30T23:10:48.567Z,45.50
2022-10-30T23:14:03.743Z,45.44
2022-10-30T23:17:18.471Z,45.10
2022-10-30T23:20:29.314Z,45.20
2022-10-30T23:23:44.026Z,45.29
2022-10-30T23:27:01.864Z,45.38
2022-10-30T23:30:17.885Z,45.97
2022-10-30T23:33:32.781Z,45.73
2022-10-30T23:36:46.114Z,46.02
2022-10-30T23:39:53.726Z,45.37
2022-10-30T23:43:10.420Z,46.08
2022-10-30T23:46:23.567Z,46.18
2022-10-30T23:49:34.539Z,47.08
2022-10-30T23:52:44.544Z,46.21
2022-10-30T23:56:00.032Z,46.99
2022-10-30T23:59:17.414Z,46.96
